Nanwalek, Alaska
Current Conditions -  °F | °C
As of 5:53 AM on Monday 22 Dec 2014 (Local Time) from PAHO Reporting Station
Overcast Overcast  
Wind Chill: 25°   Ceiling: 10000
Heat Index: 30°   Visibility: 10mi
Dew Point: 27°   Wind: 5mph
Humidity: 88%   Direction: 60°ENE
Pressure: 29.63"   Gusts: NA
Location:  59.7153°N, 150.773°W
Report Text: PAHO 221453Z 06004KT 10SM SCT014 BKN100 OVC120 M01/M03 A2963 RMK AO2 SLP035 60000 T10111028 51015
Loading
Personal Weather Stations






























Interactive Weather Map New forecast layout! Learn more

10-Day Weather Forecast

Advertisements
Track Severe Weather on mobile